createdAt,value
2023-04-28T00:03:21.374Z,3.57
2023-04-28T00:09:24.137Z,5.10
2023-04-28T00:15:26.128Z,3.67
2023-04-28T00:21:28.688Z,4.37
2023-04-28T00:27:30.683Z,4.20
2023-04-28T00:33:32.555Z,4.10
2023-04-28T00:39:34.442Z,3.50
2023-04-28T00:45:36.643Z,3.57
2023-04-28T00:51:38.666Z,3.67
2023-04-28T00:57:41.431Z,3.47
2023-04-28T01:03:44.230Z,3.33
2023-04-28T01:09:47.972Z,3.30
2023-04-28T01:15:50.672Z,4.30
2023-04-28T01:21:52.663Z,3.53
2023-04-28T01:27:54.576Z,3.53
2023-04-28T01:33:56.981Z,4.30
2023-04-28T01:39:58.879Z,3.90
2023-04-28T01:46:01.918Z,4.00
2023-04-28T01:52:04.066Z,4.40
2023-04-28T01:58:06.005Z,4.33
2023-04-28T02:04:08.022Z,3.80
2023-04-28T02:10:10.427Z,4.80
2023-04-28T02:16:12.411Z,4.13
2023-04-28T02:22:14.366Z,4.30
2023-04-28T02:28:16.287Z,4.40
2023-04-28T02:34:18.334Z,3.93
2023-04-28T02:40:20.684Z,4.53
2023-04-28T02:46:22.639Z,4.20
2023-04-28T02:52:24.541Z,5.03
2023-04-28T02:58:26.776Z,5.00
2023-04-28T03:04:28.757Z,4.10
2023-04-28T03:10:30.794Z,5.33
2023-04-28T03:16:33.317Z,5.00
2023-04-28T03:22:36.004Z,5.43
2023-04-28T03:28:37.898Z,5.20
2023-04-28T03:34:39.952Z,4.77
2023-04-28T03:40:41.936Z,4.90
2023-04-28T03:46:43.837Z,4.80
2023-04-28T03:52:45.758Z,5.67
2023-04-28T03:58:47.695Z,6.43
2023-04-28T04:04:49.856Z,5.30
2023-04-28T04:10:52.694Z,4.80
2023-04-28T04:16:55.560Z,5.27
2023-04-28T04:22:57.509Z,5.20
2023-04-28T04:28:59.380Z,5.40
2023-04-28T04:35:01.349Z,5.10
2023-04-28T04:41:03.227Z,5.90
2023-04-28T04:47:05.226Z,5.77
2023-04-28T04:53:09.899Z,6.77
2023-04-28T04:59:14.191Z,6.10
2023-04-28T05:05:21.218Z,5.80
2023-04-28T05:11:24.197Z,6.20
2023-04-28T05:17:26.071Z,6.47
2023-04-28T05:23:27.976Z,5.40
2023-04-28T05:29:30.023Z,6.60
2023-04-28T05:35:32.075Z,6.63
2023-04-28T05:41:36.646Z,7.77
2023-04-28T05:47:38.711Z,7.13
2023-04-28T05:53:41.075Z,7.20
2023-04-28T05:59:43.605Z,7.43
2023-04-28T06:05:46.063Z,8.40
2023-04-28T06:11:48.179Z,7.43
2023-04-28T06:17:50.161Z,7.40
2023-04-28T06:23:52.198Z,8.07
2023-04-28T06:29:54.068Z,7.73
2023-04-28T06:35:56.267Z,9.30
2023-04-28T06:41:58.155Z,8.10
2023-04-28T06:48:00.202Z,7.70
2023-04-28T06:54:02.104Z,8.60
2023-04-28T07:00:04.741Z,8.60
2023-04-28T07:06:06.925Z,7.73
2023-04-28T07:12:08.876Z,7.83
2023-04-28T07:18:10.875Z,8.20
2023-04-28T07:24:12.858Z,7.40
2023-04-28T07:30:25.871Z,7.90
2023-04-28T07:36:29.909Z,7.83
2023-04-28T07:42:32.123Z,7.80
2023-04-28T07:48:35.453Z,8.47
2023-04-28T07:54:37.431Z,8.20
2023-04-28T08:00:41.048Z,8.83
2023-04-28T08:06:43.272Z,9.30
2023-04-28T08:12:45.428Z,8.93
2023-04-28T08:18:47.365Z,9.30
2023-04-28T08:24:49.279Z,9.80
2023-04-28T08:30:51.260Z,9.20
2023-04-28T08:36:53.602Z,9.60
2023-04-28T08:42:55.854Z,8.50
2023-04-28T08:49:04.139Z,9.17
2023-04-28T08:55:12.559Z,8.93
2023-04-28T09:01:14.717Z,8.73
2023-04-28T09:07:16.673Z,9.60
2023-04-28T09:13:27.407Z,9.17
2023-04-28T09:19:38.272Z,9.13
2023-04-28T09:25:40.223Z,8.73
2023-04-28T09:31:42.843Z,8.87
2023-04-28T09:37:44.779Z,9.90
2023-04-28T09:43:46.677Z,9.50
2023-04-28T09:50:01.037Z,8.70
2023-04-28T09:56:05.393Z,8.70
2023-04-28T10:02:22.582Z,8.87
2023-04-28T10:08:29.636Z,8.50
2023-04-28T10:14:32.306Z,8.70
2023-04-28T10:20:34.903Z,9.90
2023-04-28T10:27:10.511Z,9.60
2023-04-28T10:33:15.437Z,10.43
2023-04-28T10:39:17.438Z,10.67
2023-04-28T10:45:56.408Z,10.50
2023-04-28T10:51:59.204Z,10.07
2023-04-28T10:58:32.486Z,12.90
2023-04-28T11:05:13.547Z,11.80
2023-04-28T11:11:18.599Z,12.10
2023-04-28T11:17:41.316Z,12.50
2023-04-28T11:23:44.031Z,12.23
2023-04-28T11:29:49.097Z,12.57
2023-04-28T11:35:51.254Z,11.47
2023-04-28T11:41:53.204Z,12.00
2023-04-28T11:47:55.122Z,11.60
2023-04-28T11:53:57.045Z,11.20
2023-04-28T12:00:19.815Z,10.60
2023-04-28T12:06:22.066Z,11.33
2023-04-28T12:12:40.533Z,11.03
2023-04-28T12:19:00.008Z,11.60
2023-04-28T12:25:08.303Z,11.20
2023-04-28T12:31:11.050Z,11.87
2023-04-28T12:37:13.605Z,11.83
2023-04-28T12:43:15.651Z,12.17
2023-04-28T12:49:17.623Z,11.80
2023-04-28T12:55:19.560Z,13.13
2023-04-28T13:01:21.489Z,12.00
2023-04-28T13:07:23.644Z,11.30
2023-04-28T13:13:25.515Z,11.50
2023-04-28T13:19:28.685Z,11.37
2023-04-28T13:25:31.094Z,10.97
2023-04-28T13:31:33.012Z,11.37
2023-04-28T13:37:36.313Z,12.47
2023-04-28T13:43:38.233Z,12.40
2023-04-28T13:49:40.263Z,10.90
2023-04-28T13:55:42.200Z,13.17
2023-04-28T14:01:44.268Z,11.00
2023-04-28T14:07:46.316Z,12.33
2023-04-28T14:13:48.230Z,13.80
2023-04-28T14:19:50.450Z,12.00
2023-04-28T14:25:58.993Z,13.20
2023-04-28T14:32:00.986Z,12.97
2023-04-28T14:38:03.942Z,10.80
2023-04-28T14:44:06.202Z,12.37
2023-04-28T14:50:13.179Z,11.60
2023-04-28T14:56:19.079Z,11.97
2023-04-28T15:02:27.957Z,12.60
2023-04-28T15:08:30.178Z,12.70
2023-04-28T15:14:32.371Z,12.30
2023-04-28T15:20:37.265Z,12.40
2023-04-28T15:26:39.238Z,13.23
2023-04-28T15:32:41.412Z,13.13
2023-04-28T15:38:45.247Z,12.70
2023-04-28T15:44:47.301Z,12.50
2023-04-28T15:50:49.302Z,11.97
2023-04-28T15:56:51.249Z,13.07
2023-04-28T16:02:53.315Z,13.30
2023-04-28T16:08:56.903Z,14.13
2023-04-28T16:14:59.617Z,14.43
2023-04-28T16:21:01.519Z,12.33
2023-04-28T16:27:03.635Z,13.30
2023-04-28T16:33:05.568Z,13.60
2023-04-28T16:39:07.528Z,12.77
2023-04-28T16:45:10.885Z,12.80
2023-04-28T16:51:12.864Z,12.03
2023-04-28T16:57:14.884Z,13.17
2023-04-28T17:03:17.205Z,12.90
2023-04-28T17:09:20.900Z,12.10
2023-04-28T17:15:22.985Z,11.80
2023-04-28T17:21:28.623Z,12.67
2023-04-28T17:27:30.916Z,12.47
2023-04-28T17:33:32.802Z,15.10
2023-04-28T17:39:34.726Z,14.67
2023-04-28T17:45:36.596Z,13.47
2023-04-28T17:51:38.499Z,14.27
2023-04-28T17:57:40.494Z,13.57
2023-04-28T18:03:43.254Z,13.43
2023-04-28T18:09:45.634Z,14.70
2023-04-28T18:15:47.777Z,14.33
2023-04-28T18:21:49.678Z,13.10
2023-04-28T18:27:51.619Z,13.87
2023-04-28T18:33:53.787Z,13.90
2023-04-28T18:39:57.293Z,14.53
2023-04-28T18:46:04.234Z,15.23
2023-04-28T18:52:06.226Z,14.67
2023-04-28T18:58:08.244Z,14.30
2023-04-28T19:04:10.278Z,16.80
2023-04-28T19:10:13.081Z,17.60
2023-04-28T19:16:15.167Z,16.93
2023-04-28T19:22:35.122Z,17.27
2023-04-28T19:28:37.182Z,19.37
2023-04-28T19:34:39.189Z,19.23
2023-04-28T19:40:41.132Z,18.90
2023-04-28T19:46:45.676Z,18.50
2023-04-28T19:52:48.165Z,18.30
2023-04-28T19:58:50.062Z,20.10
2023-04-28T20:04:52.011Z,18.07
2023-04-28T20:10:54.929Z,19.97
2023-04-28T20:16:57.616Z,20.70
2023-04-28T20:22:59.496Z,20.37
2023-04-28T20:29:01.385Z,20.10
2023-04-28T20:35:05.730Z,33.40
2023-04-28T20:41:08.646Z,21.63
2023-04-28T20:47:10.804Z,24.90
2023-04-28T20:53:12.755Z,23.33
2023-04-28T20:59:14.656Z,21.83
2023-04-28T21:05:17.597Z,23.83
2023-04-28T21:11:20.457Z,20.90
2023-04-28T21:17:23.063Z,28.83
2023-04-28T21:23:25.395Z,21.60
2023-04-28T21:29:27.561Z,20.83
2023-04-28T21:35:29.616Z,21.07
2023-04-28T21:41:31.869Z,21.20
2023-04-28T21:47:34.178Z,21.53
2023-04-28T21:53:36.272Z,19.10
2023-04-28T21:59:38.142Z,20.00
2023-04-28T22:05:41.235Z,19.77
2023-04-28T22:11:43.459Z,15.50
2023-04-28T22:17:45.420Z,15.40
2023-04-28T22:23:47.930Z,14.60
2023-04-28T22:29:50.137Z,14.73
2023-04-28T22:35:52.295Z,13.87
2023-04-28T22:41:54.535Z,12.33
2023-04-28T22:47:56.973Z,13.20
2023-04-28T22:53:58.911Z,13.40
2023-04-28T23:00:00.996Z,12.90
2023-04-28T23:06:02.922Z,11.53
2023-04-28T23:12:05.324Z,12.27
2023-04-28T23:18:07.298Z,10.70
2023-04-28T23:24:10.240Z,11.10
2023-04-28T23:30:13.057Z,9.87
2023-04-28T23:36:15.158Z,9.80
2023-04-28T23:42:17.479Z,8.77
2023-04-28T23:48:19.518Z,9.07
2023-04-28T23:54:21.787Z,8.27
